Airfield :
LOGIN :

Register | Disclaimer

   EN    FR    IT 

 










Legend :    VFR   Marginal VFR   IFR   Intensive IFR   Very Intensive IFR
Visi :
Ceiling :
>= 8 km
>= 3000ft
5 to 8 km
1000 to 3000 ft
1500m to 5 km
500 to 1000 ft
800 to 1500m
200 to 500 ft
< 800m
< 200 ft
Symbols :   Thunderstorms  Fog  Heavy snow  Heavy precipitations  Wind > 20 kt
SIGMETs :     Misc.  Thunderstorms  Icing  Turbulence  Mountain Waves  Volcanic Ashes







- Airport Elevation : 39 ft
- IATA code : CTA


LICC - Catania Fontanarossa

CURRENT METAR :
  • 182220Z 26009KT CAVOK 22/20 Q1019

EXPIRED METARs :
  • 182150Z 27006KT CAVOK 22/20 Q1019
  • 182120Z 25007KT CAVOK 22/20 Q1019
  • 182050Z 25005KT CAVOK 22/19 Q1019
  • 182020Z 27005KT CAVOK 22/19 Q1019
  • 181950Z 26006KT 9999 FEW100 22/20 Q1019

TAF TAF LICC
Valid from the 18 at 18:00 until the 19 at 18:00 UTC


181700Z 1818/1918 08010KT 9999 SCT040
BECMG 1818/1820 VRB05KT
BECMG 1909/1911 08010KT
TEMPO 1912/1918 TSRA
No reported NOTAMs for that airfield.
2 SIGMETs reported for the Roma FIR (LIRR) :
 
Frequent thunderstorms
LIRR SIGMET 6 VALID 182300/190200 LIIB
LIRR ROMA FIR FRQ TS OBS WI N3832 E00900 - N4112 E00900 - N4112 E01231 - N3832 E01231 - N3832 E00900 TOP ABV FL360 STNR NC=
Embedded thunderstorms
LIRR SIGMET 5 VALID 181900/182300 LIIB
LIRR ROMA FIR EMBD TS FCST W OF LINE N4311 E00914 - N3618 E01350 TOP ABV FL360 STNR INTSF=



MET'MAP, your aeronautical weather chart ! - Copyright ORBIFLY December 2007 - Disclaimer

ORBIFLY MET'MAP TEAM :

Programming & Development : Alexandra Zaïnal
Concept & Development : Baudouin d'Aumeries
Co-Development & Prog : Marc-Olivier Méhu
Technical & hardware support : Manuel Goepfert

Contact : metmap@orbifly.com




SOURCES & CREDITS :

   NOAA